sensor_id;sensor_type;location;lat;lon;timestamp;P1;durP1;ratioP1;P2;durP2;ratioP2
60243;SDS011;46106;51.468;5.814;2023-05-18T00:02:03;15.88;;;2.35;;
60243;SDS011;46106;51.468;5.814;2023-05-18T00:04:34;12.55;;;2.17;;
60243;SDS011;46106;51.468;5.814;2023-05-18T00:07:00;9.77;;;1.95;;
60243;SDS011;46106;51.468;5.814;2023-05-18T00:09:31;11.95;;;2.13;;
60243;SDS011;46106;51.468;5.814;2023-05-18T00:11:58;24.45;;;2.83;;
60243;SDS011;46106;51.468;5.814;2023-05-18T00:14:25;15.82;;;2.38;;
60243;SDS011;46106;51.468;5.814;2023-05-18T00:16:51;9.15;;;2.25;;
60243;SDS011;46106;51.468;5.814;2023-05-18T00:19:21;12.93;;;2.40;;
60243;SDS011;46106;51.468;5.814;2023-05-18T00:21:48;9.80;;;1.98;;
60243;SDS011;46106;51.468;5.814;2023-05-18T00:24:15;7.78;;;1.98;;
60243;SDS011;46106;51.468;5.814;2023-05-18T00:26:42;13.82;;;3.70;;
60243;SDS011;46106;51.468;5.814;2023-05-18T00:29:08;7.30;;;2.25;;
60243;SDS011;46106;51.468;5.814;2023-05-18T00:31:34;8.55;;;2.10;;
60243;SDS011;46106;51.468;5.814;2023-05-18T00:34:02;7.10;;;2.08;;
60243;SDS011;46106;51.468;5.814;2023-05-18T00:36:28;5.53;;;2.25;;
60243;SDS011;46106;51.468;5.814;2023-05-18T00:38:55;9.27;;;2.28;;
60243;SDS011;46106;51.468;5.814;2023-05-18T00:41:21;10.90;;;2.80;;
60243;SDS011;46106;51.468;5.814;2023-05-18T00:43:49;12.32;;;3.03;;
60243;SDS011;46106;51.468;5.814;2023-05-18T00:46:14;15.43;;;2.80;;
60243;SDS011;46106;51.468;5.814;2023-05-18T00:48:40;8.45;;;2.17;;
60243;SDS011;46106;51.468;5.814;2023-05-18T00:51:06;8.45;;;2.20;;
60243;SDS011;46106;51.468;5.814;2023-05-18T00:53:33;12.10;;;3.17;;
60243;SDS011;46106;51.468;5.814;2023-05-18T00:56:01;7.55;;;2.55;;
60243;SDS011;46106;51.468;5.814;2023-05-18T00:58:27;13.57;;;3.22;;
60243;SDS011;46106;51.468;5.814;2023-05-18T01:00:53;12.30;;;2.45;;
60243;SDS011;46106;51.468;5.814;2023-05-18T01:03:19;18.35;;;3.03;;
60243;SDS011;46106;51.468;5.814;2023-05-18T01:05:45;12.98;;;2.75;;
60243;SDS011;46106;51.468;5.814;2023-05-18T01:08:20;10.55;;;3.22;;
60243;SDS011;46106;51.468;5.814;2023-05-18T01:10:49;15.35;;;3.08;;
60243;SDS011;46106;51.468;5.814;2023-05-18T01:15:53;16.15;;;2.65;;
60243;SDS011;46106;51.468;5.814;2023-05-18T01:18:36;15.70;;;3.00;;
60243;SDS011;46106;51.468;5.814;2023-05-18T01:21:31;8.35;;;3.00;;
60243;SDS011;46106;51.468;5.814;2023-05-18T01:24:19;4.35;;;2.60;;
60243;SDS011;46106;51.468;5.814;2023-05-18T01:26:50;8.75;;;2.55;;
60243;SDS011;46106;51.468;5.814;2023-05-18T01:29:21;7.60;;;2.55;;
60243;SDS011;46106;51.468;5.814;2023-05-18T01:31:49;20.55;;;3.63;;
60243;SDS011;46106;51.468;5.814;2023-05-18T01:34:15;20.05;;;3.75;;
60243;SDS011;46106;51.468;5.814;2023-05-18T01:36:40;10.10;;;2.88;;
60243;SDS011;46106;51.468;5.814;2023-05-18T01:39:06;9.00;;;3.30;;
60243;SDS011;46106;51.468;5.814;2023-05-18T01:41:38;14.25;;;3.85;;
60243;SDS011;46106;51.468;5.814;2023-05-18T01:44:11;12.93;;;4.00;;
60243;SDS011;46106;51.468;5.814;2023-05-18T01:47:03;7.30;;;2.65;;
60243;SDS011;46106;51.468;5.814;2023-05-18T01:52:10;7.38;;;2.75;;
60243;SDS011;46106;51.468;5.814;2023-05-18T01:54:42;13.30;;;3.08;;
60243;SDS011;46106;51.468;5.814;2023-05-18T01:57:13;12.13;;;2.78;;
60243;SDS011;46106;51.468;5.814;2023-05-18T01:59:40;8.57;;;2.72;;
60243;SDS011;46106;51.468;5.814;2023-05-18T02:02:07;10.90;;;2.88;;
60243;SDS011;46106;51.468;5.814;2023-05-18T02:04:32;14.82;;;3.40;;
60243;SDS011;46106;51.468;5.814;2023-05-18T02:06:59;14.05;;;3.03;;
60243;SDS011;46106;51.468;5.814;2023-05-18T02:09:25;13.98;;;3.58;;
60243;SDS011;46106;51.468;5.814;2023-05-18T02:11:50;8.35;;;2.50;;
60243;SDS011;46106;51.468;5.814;2023-05-18T02:14:15;12.25;;;3.67;;
60243;SDS011;46106;51.468;5.814;2023-05-18T02:16:41;13.23;;;3.10;;
60243;SDS011;46106;51.468;5.814;2023-05-18T02:19:12;13.43;;;3.67;;
60243;SDS011;46106;51.468;5.814;2023-05-18T02:21:38;15.57;;;4.25;;
60243;SDS011;46106;51.468;5.814;2023-05-18T02:24:05;10.10;;;3.25;;
60243;SDS011;46106;51.468;5.814;2023-05-18T02:26:31;13.25;;;3.50;;
60243;SDS011;46106;51.468;5.814;2023-05-18T02:28:57;8.18;;;2.95;;
60243;SDS011;46106;51.468;5.814;2023-05-18T02:31:22;11.32;;;2.92;;
60243;SDS011;46106;51.468;5.814;2023-05-18T02:33:52;13.13;;;3.60;;
60243;SDS011;46106;51.468;5.814;2023-05-18T02:36:17;13.02;;;3.83;;
60243;SDS011;46106;51.468;5.814;2023-05-18T02:38:43;13.50;;;3.88;;
60243;SDS011;46106;51.468;5.814;2023-05-18T02:41:08;6.65;;;3.60;;
60243;SDS011;46106;51.468;5.814;2023-05-18T02:43:34;15.52;;;3.50;;
60243;SDS011;46106;51.468;5.814;2023-05-18T02:46:01;11.52;;;3.28;;
60243;SDS011;46106;51.468;5.814;2023-05-18T02:48:27;15.65;;;3.47;;
60243;SDS011;46106;51.468;5.814;2023-05-18T02:50:53;10.48;;;3.80;;
60243;SDS011;46106;51.468;5.814;2023-05-18T02:53:19;13.85;;;3.80;;
60243;SDS011;46106;51.468;5.814;2023-05-18T02:55:45;15.23;;;3.25;;
60243;SDS011;46106;51.468;5.814;2023-05-18T02:58:11;15.68;;;3.85;;
60243;SDS011;46106;51.468;5.814;2023-05-18T03:00:40;14.15;;;3.45;;
60243;SDS011;46106;51.468;5.814;2023-05-18T03:03:06;16.88;;;3.60;;
60243;SDS011;46106;51.468;5.814;2023-05-18T03:05:35;13.85;;;4.07;;
60243;SDS011;46106;51.468;5.814;2023-05-18T03:08:00;9.57;;;4.18;;
60243;SDS011;46106;51.468;5.814;2023-05-18T03:10:26;9.48;;;3.05;;
60243;SDS011;46106;51.468;5.814;2023-05-18T03:12:51;7.35;;;3.20;;
60243;SDS011;46106;51.468;5.814;2023-05-18T03:15:17;10.20;;;2.90;;
60243;SDS011;46106;51.468;5.814;2023-05-18T03:17:43;12.65;;;4.20;;
60243;SDS011;46106;51.468;5.814;2023-05-18T03:20:09;13.68;;;3.80;;
60243;SDS011;46106;51.468;5.814;2023-05-18T03:22:36;11.45;;;4.72;;
60243;SDS011;46106;51.468;5.814;2023-05-18T03:25:02;7.68;;;3.63;;
60243;SDS011;46106;51.468;5.814;2023-05-18T03:27:28;8.43;;;3.63;;
60243;SDS011;46106;51.468;5.814;2023-05-18T03:29:54;11.18;;;4.40;;
60243;SDS011;46106;51.468;5.814;2023-05-18T03:32:21;9.95;;;3.90;;
60243;SDS011;46106;51.468;5.814;2023-05-18T03:34:48;16.38;;;3.90;;
60243;SDS011;46106;51.468;5.814;2023-05-18T03:37:15;11.50;;;4.20;;
60243;SDS011;46106;51.468;5.814;2023-05-18T03:39:41;14.27;;;4.00;;
60243;SDS011;46106;51.468;5.814;2023-05-18T03:42:07;18.83;;;4.00;;
60243;SDS011;46106;51.468;5.814;2023-05-18T03:44:32;10.93;;;3.92;;
60243;SDS011;46106;51.468;5.814;2023-05-18T03:46:58;11.57;;;4.40;;
60243;SDS011;46106;51.468;5.814;2023-05-18T03:49:23;11.60;;;4.57;;
60243;SDS011;46106;51.468;5.814;2023-05-18T03:51:52;8.70;;;3.90;;
60243;SDS011;46106;51.468;5.814;2023-05-18T03:54:20;10.63;;;3.97;;
60243;SDS011;46106;51.468;5.814;2023-05-18T03:56:46;19.88;;;4.28;;
60243;SDS011;46106;51.468;5.814;2023-05-18T03:59:12;11.23;;;4.30;;
60243;SDS011;46106;51.468;5.814;2023-05-18T04:01:38;17.08;;;4.20;;
60243;SDS011;46106;51.468;5.814;2023-05-18T04:04:06;13.65;;;4.85;;
60243;SDS011;46106;51.468;5.814;2023-05-18T04:06:32;9.80;;;4.38;;
60243;SDS011;46106;51.468;5.814;2023-05-18T04:09:01;9.63;;;3.63;;
60243;SDS011;46106;51.468;5.814;2023-05-18T04:11:27;14.88;;;4.20;;
60243;SDS011;46106;51.468;5.814;2023-05-18T04:13:53;9.50;;;4.63;;
60243;SDS011;46106;51.468;5.814;2023-05-18T04:16:18;11.00;;;4.32;;
60243;SDS011;46106;51.468;5.814;2023-05-18T04:18:43;14.27;;;4.43;;
60243;SDS011;46106;51.468;5.814;2023-05-18T04:21:09;15.52;;;4.57;;
60243;SDS011;46106;51.468;5.814;2023-05-18T04:23:35;15.65;;;4.43;;
60243;SDS011;46106;51.468;5.814;2023-05-18T04:26:06;9.40;;;3.72;;
60243;SDS011;46106;51.468;5.814;2023-05-18T04:28:33;8.50;;;4.30;;
60243;SDS011;46106;51.468;5.814;2023-05-18T04:30:58;9.55;;;4.47;;
60243;SDS011;46106;51.468;5.814;2023-05-18T04:33:26;11.38;;;4.28;;
60243;SDS011;46106;51.468;5.814;2023-05-18T04:35:52;8.93;;;4.05;;
60243;SDS011;46106;51.468;5.814;2023-05-18T04:38:22;12.50;;;4.28;;
60243;SDS011;46106;51.468;5.814;2023-05-18T04:40:48;10.10;;;3.97;;
60243;SDS011;46106;51.468;5.814;2023-05-18T04:43:18;7.03;;;4.18;;
60243;SDS011;46106;51.468;5.814;2023-05-18T04:45:45;21.17;;;5.05;;
60243;SDS011;46106;51.468;5.814;2023-05-18T04:48:11;8.50;;;3.50;;
60243;SDS011;46106;51.468;5.814;2023-05-18T04:50:38;16.77;;;4.43;;
60243;SDS011;46106;51.468;5.814;2023-05-18T04:53:04;14.57;;;4.20;;
60243;SDS011;46106;51.468;5.814;2023-05-18T04:55:31;13.48;;;3.60;;
60243;SDS011;46106;51.468;5.814;2023-05-18T04:57:57;14.38;;;3.50;;
60243;SDS011;46106;51.468;5.814;2023-05-18T05:00:25;13.10;;;3.38;;
60243;SDS011;46106;51.468;5.814;2023-05-18T05:02:53;13.10;;;3.40;;
60243;SDS011;46106;51.468;5.814;2023-05-18T05:05:23;9.50;;;3.78;;
60243;SDS011;46106;51.468;5.814;2023-05-18T05:07:50;12.55;;;3.33;;
60243;SDS011;46106;51.468;5.814;2023-05-18T05:10:16;13.55;;;4.00;;
60243;SDS011;46106;51.468;5.814;2023-05-18T05:12:43;15.40;;;4.07;;
60243;SDS011;46106;51.468;5.814;2023-05-18T05:15:09;9.88;;;3.75;;
60243;SDS011;46106;51.468;5.814;2023-05-18T05:17:35;8.55;;;3.15;;
60243;SDS011;46106;51.468;5.814;2023-05-18T05:20:00;10.50;;;3.20;;
60243;SDS011;46106;51.468;5.814;2023-05-18T05:22:26;10.30;;;3.10;;
60243;SDS011;46106;51.468;5.814;2023-05-18T05:24:51;21.92;;;3.88;;
60243;SDS011;46106;51.468;5.814;2023-05-18T05:27:17;9.15;;;3.30;;
60243;SDS011;46106;51.468;5.814;2023-05-18T05:29:44;13.80;;;3.72;;
60243;SDS011;46106;51.468;5.814;2023-05-18T05:32:11;18.33;;;3.53;;
60243;SDS011;46106;51.468;5.814;2023-05-18T05:34:37;10.65;;;3.45;;
60243;SDS011;46106;51.468;5.814;2023-05-18T05:37:03;9.00;;;3.45;;
60243;SDS011;46106;51.468;5.814;2023-05-18T05:39:29;9.80;;;2.92;;
60243;SDS011;46106;51.468;5.814;2023-05-18T05:41:55;20.52;;;3.95;;
60243;SDS011;46106;51.468;5.814;2023-05-18T05:44:21;8.05;;;3.88;;
60243;SDS011;46106;51.468;5.814;2023-05-18T05:46:46;17.65;;;4.25;;
60243;SDS011;46106;51.468;5.814;2023-05-18T05:49:12;13.40;;;3.85;;
60243;SDS011;46106;51.468;5.814;2023-05-18T05:51:37;10.25;;;3.70;;
60243;SDS011;46106;51.468;5.814;2023-05-18T05:54:03;10.38;;;3.38;;
60243;SDS011;46106;51.468;5.814;2023-05-18T05:56:28;12.60;;;3.75;;
60243;SDS011;46106;51.468;5.814;2023-05-18T05:58:54;8.90;;;3.20;;
60243;SDS011;46106;51.468;5.814;2023-05-18T06:01:19;15.63;;;3.50;;
60243;SDS011;46106;51.468;5.814;2023-05-18T06:03:45;11.75;;;3.90;;
60243;SDS011;46106;51.468;5.814;2023-05-18T06:06:11;19.80;;;3.65;;
60243;SDS011;46106;51.468;5.814;2023-05-18T06:08:37;16.77;;;3.08;;
60243;SDS011;46106;51.468;5.814;2023-05-18T06:11:02;10.45;;;3.75;;
60243;SDS011;46106;51.468;5.814;2023-05-18T06:13:28;6.68;;;3.35;;
60243;SDS011;46106;51.468;5.814;2023-05-18T06:15:53;11.73;;;2.85;;
60243;SDS011;46106;51.468;5.814;2023-05-18T06:18:19;12.35;;;3.47;;
60243;SDS011;46106;51.468;5.814;2023-05-18T06:20:44;14.27;;;3.35;;
60243;SDS011;46106;51.468;5.814;2023-05-18T06:23:13;18.08;;;3.15;;
60243;SDS011;46106;51.468;5.814;2023-05-18T06:25:39;12.57;;;3.40;;
60243;SDS011;46106;51.468;5.814;2023-05-18T06:28:04;10.32;;;3.08;;
60243;SDS011;46106;51.468;5.814;2023-05-18T06:30:29;13.57;;;3.00;;
60243;SDS011;46106;51.468;5.814;2023-05-18T06:32:55;11.38;;;3.20;;
60243;SDS011;46106;51.468;5.814;2023-05-18T06:35:20;12.25;;;2.97;;
60243;SDS011;46106;51.468;5.814;2023-05-18T06:37:47;14.63;;;3.17;;
60243;SDS011;46106;51.468;5.814;2023-05-18T06:40:12;14.68;;;3.47;;
60243;SDS011;46106;51.468;5.814;2023-05-18T06:42:38;13.75;;;3.03;;
60243;SDS011;46106;51.468;5.814;2023-05-18T06:45:03;14.93;;;2.88;;
60243;SDS011;46106;51.468;5.814;2023-05-18T06:47:29;10.00;;;2.33;;
60243;SDS011;46106;51.468;5.814;2023-05-18T06:49:55;9.63;;;2.75;;
60243;SDS011;46106;51.468;5.814;2023-05-18T06:52:21;8.25;;;3.80;;
60243;SDS011;46106;51.468;5.814;2023-05-18T06:54:47;15.63;;;2.75;;
60243;SDS011;46106;51.468;5.814;2023-05-18T06:57:12;8.75;;;3.03;;
60243;SDS011;46106;51.468;5.814;2023-05-18T06:59:38;10.32;;;2.53;;
60243;SDS011;46106;51.468;5.814;2023-05-18T07:02:03;12.48;;;2.70;;
60243;SDS011;46106;51.468;5.814;2023-05-18T07:04:29;10.75;;;2.50;;
60243;SDS011;46106;51.468;5.814;2023-05-18T07:06:54;13.68;;;3.03;;
60243;SDS011;46106;51.468;5.814;2023-05-18T07:09:21;20.65;;;2.90;;
60243;SDS011;46106;51.468;5.814;2023-05-18T07:11:47;9.15;;;3.17;;
60243;SDS011;46106;51.468;5.814;2023-05-18T07:14:12;13.05;;;3.10;;
60243;SDS011;46106;51.468;5.814;2023-05-18T07:16:38;7.72;;;2.70;;
60243;SDS011;46106;51.468;5.814;2023-05-18T07:19:03;9.30;;;2.88;;
60243;SDS011;46106;51.468;5.814;2023-05-18T07:21:29;15.25;;;3.03;;
60243;SDS011;46106;51.468;5.814;2023-05-18T07:23:55;8.50;;;2.80;;
60243;SDS011;46106;51.468;5.814;2023-05-18T07:26:21;8.95;;;2.92;;
60243;SDS011;46106;51.468;5.814;2023-05-18T07:28:47;16.98;;;2.45;;
60243;SDS011;46106;51.468;5.814;2023-05-18T07:31:12;11.07;;;2.25;;
60243;SDS011;46106;51.468;5.814;2023-05-18T07:33:40;13.70;;;2.53;;
60243;SDS011;46106;51.468;5.814;2023-05-18T07:36:06;14.00;;;3.63;;
60243;SDS011;46106;51.468;5.814;2023-05-18T07:38:32;19.33;;;2.88;;
60243;SDS011;46106;51.468;5.814;2023-05-18T07:40:58;6.93;;;2.08;;
60243;SDS011;46106;51.468;5.814;2023-05-18T07:43:24;6.63;;;2.30;;
60243;SDS011;46106;51.468;5.814;2023-05-18T07:45:50;14.77;;;2.75;;
60243;SDS011;46106;51.468;5.814;2023-05-18T07:48:15;10.85;;;2.63;;
60243;SDS011;46106;51.468;5.814;2023-05-18T07:50:41;6.90;;;2.28;;
60243;SDS011;46106;51.468;5.814;2023-05-18T07:53:06;13.63;;;2.90;;
60243;SDS011;46106;51.468;5.814;2023-05-18T07:55:32;11.30;;;2.72;;
60243;SDS011;46106;51.468;5.814;2023-05-18T07:57:57;14.98;;;2.78;;
60243;SDS011;46106;51.468;5.814;2023-05-18T08:00:25;6.80;;;2.42;;
60243;SDS011;46106;51.468;5.814;2023-05-18T08:02:50;13.40;;;2.28;;
60243;SDS011;46106;51.468;5.814;2023-05-18T08:05:16;11.13;;;2.55;;
60243;SDS011;46106;51.468;5.814;2023-05-18T08:07:42;11.05;;;2.08;;
60243;SDS011;46106;51.468;5.814;2023-05-18T08:10:08;8.88;;;2.42;;
60243;SDS011;46106;51.468;5.814;2023-05-18T08:12:34;13.30;;;2.35;;
60243;SDS011;46106;51.468;5.814;2023-05-18T08:15:00;11.10;;;2.05;;
60243;SDS011;46106;51.468;5.814;2023-05-18T08:17:25;10.02;;;2.75;;
60243;SDS011;46106;51.468;5.814;2023-05-18T08:19:51;8.20;;;2.13;;
60243;SDS011;46106;51.468;5.814;2023-05-18T08:22:18;9.13;;;2.47;;
60243;SDS011;46106;51.468;5.814;2023-05-18T08:24:43;5.95;;;1.98;;
60243;SDS011;46106;51.468;5.814;2023-05-18T08:27:09;11.27;;;2.33;;
60243;SDS011;46106;51.468;5.814;2023-05-18T08:29:35;13.23;;;2.15;;
60243;SDS011;46106;51.468;5.814;2023-05-18T08:32:01;12.13;;;2.20;;
60243;SDS011;46106;51.468;5.814;2023-05-18T08:34:28;9.60;;;2.55;;
60243;SDS011;46106;51.468;5.814;2023-05-18T08:36:54;9.10;;;1.67;;
60243;SDS011;46106;51.468;5.814;2023-05-18T08:39:19;10.13;;;1.92;;
60243;SDS011;46106;51.468;5.814;2023-05-18T08:41:48;9.48;;;2.00;;
60243;SDS011;46106;51.468;5.814;2023-05-18T08:47:50;12.07;;;2.17;;
60243;SDS011;46106;51.468;5.814;2023-05-18T08:50:19;7.28;;;2.08;;
60243;SDS011;46106;51.468;5.814;2023-05-18T08:52:49;12.52;;;1.92;;
60243;SDS011;46106;51.468;5.814;2023-05-18T08:55:18;17.23;;;2.17;;
60243;SDS011;46106;51.468;5.814;2023-05-18T08:57:49;10.20;;;2.10;;
60243;SDS011;46106;51.468;5.814;2023-05-18T09:00:20;12.75;;;1.80;;
60243;SDS011;46106;51.468;5.814;2023-05-18T09:02:47;12.95;;;2.80;;
60243;SDS011;46106;51.468;5.814;2023-05-18T09:05:13;9.80;;;3.00;;
60243;SDS011;46106;51.468;5.814;2023-05-18T09:07:39;10.80;;;2.17;;
60243;SDS011;46106;51.468;5.814;2023-05-18T09:10:06;15.88;;;2.42;;
60243;SDS011;46106;51.468;5.814;2023-05-18T09:12:34;9.85;;;2.60;;
60243;SDS011;46106;51.468;5.814;2023-05-18T09:15:00;12.52;;;2.60;;
60243;SDS011;46106;51.468;5.814;2023-05-18T09:17:27;10.52;;;3.28;;
60243;SDS011;46106;51.468;5.814;2023-05-18T09:19:52;11.55;;;2.50;;
60243;SDS011;46106;51.468;5.814;2023-05-18T09:22:17;12.15;;;2.65;;
60243;SDS011;46106;51.468;5.814;2023-05-18T09:24:43;16.67;;;2.50;;
60243;SDS011;46106;51.468;5.814;2023-05-18T09:27:09;11.95;;;2.50;;
60243;SDS011;46106;51.468;5.814;2023-05-18T09:29:35;10.63;;;2.63;;
60243;SDS011;46106;51.468;5.814;2023-05-18T09:32:15;11.15;;;2.28;;
60243;SDS011;46106;51.468;5.814;2023-05-18T09:34:40;9.48;;;2.70;;
60243;SDS011;46106;51.468;5.814;2023-05-18T09:37:06;10.73;;;2.80;;
60243;SDS011;46106;51.468;5.814;2023-05-18T09:39:33;10.80;;;2.78;;
60243;SDS011;46106;51.468;5.814;2023-05-18T09:41:58;7.53;;;2.35;;
60243;SDS011;46106;51.468;5.814;2023-05-18T09:44:29;7.75;;;1.92;;
60243;SDS011;46106;51.468;5.814;2023-05-18T09:46:56;12.73;;;2.20;;
60243;SDS011;46106;51.468;5.814;2023-05-18T09:49:21;10.77;;;2.97;;
60243;SDS011;46106;51.468;5.814;2023-05-18T09:51:47;9.88;;;2.90;;
60243;SDS011;46106;51.468;5.814;2023-05-18T09:54:12;18.50;;;2.97;;
60243;SDS011;46106;51.468;5.814;2023-05-18T09:56:38;10.10;;;2.50;;
60243;SDS011;46106;51.468;5.814;2023-05-18T09:59:07;6.95;;;2.08;;
60243;SDS011;46106;51.468;5.814;2023-05-18T10:01:34;13.18;;;2.45;;
60243;SDS011;46106;51.468;5.814;2023-05-18T10:04:03;12.90;;;2.50;;
60243;SDS011;46106;51.468;5.814;2023-05-18T10:06:29;12.27;;;2.63;;
60243;SDS011;46106;51.468;5.814;2023-05-18T10:08:56;8.50;;;2.10;;
60243;SDS011;46106;51.468;5.814;2023-05-18T10:11:22;6.75;;;2.10;;
60243;SDS011;46106;51.468;5.814;2023-05-18T10:13:52;9.75;;;2.72;;
60243;SDS011;46106;51.468;5.814;2023-05-18T10:16:19;12.15;;;2.45;;
60243;SDS011;46106;51.468;5.814;2023-05-18T10:18:45;9.77;;;2.22;;
60243;SDS011;46106;51.468;5.814;2023-05-18T10:21:12;9.10;;;2.40;;
60243;SDS011;46106;51.468;5.814;2023-05-18T10:23:39;10.18;;;2.10;;
60243;SDS011;46106;51.468;5.814;2023-05-18T10:26:05;11.77;;;2.35;;
60243;SDS011;46106;51.468;5.814;2023-05-18T10:28:45;12.32;;;2.83;;
60243;SDS011;46106;51.468;5.814;2023-05-18T10:31:17;9.85;;;2.20;;
60243;SDS011;46106;51.468;5.814;2023-05-18T10:33:43;14.52;;;3.03;;
60243;SDS011;46106;51.468;5.814;2023-05-18T10:36:13;12.25;;;2.83;;
60243;SDS011;46106;51.468;5.814;2023-05-18T10:38:40;8.85;;;2.17;;
60243;SDS011;46106;51.468;5.814;2023-05-18T10:41:10;13.10;;;3.05;;
60243;SDS011;46106;51.468;5.814;2023-05-18T10:43:36;15.15;;;2.80;;
60243;SDS011;46106;51.468;5.814;2023-05-18T10:46:02;5.93;;;2.55;;
60243;SDS011;46106;51.468;5.814;2023-05-18T10:48:31;9.73;;;1.90;;
60243;SDS011;46106;51.468;5.814;2023-05-18T10:51:02;8.65;;;2.58;;
60243;SDS011;46106;51.468;5.814;2023-05-18T10:53:31;5.15;;;2.15;;
60243;SDS011;46106;51.468;5.814;2023-05-18T10:55:57;7.75;;;2.22;;
60243;SDS011;46106;51.468;5.814;2023-05-18T10:58:26;14.60;;;2.65;;
60243;SDS011;46106;51.468;5.814;2023-05-18T11:00:56;9.10;;;2.40;;
60243;SDS011;46106;51.468;5.814;2023-05-18T11:03:27;9.13;;;2.63;;
60243;SDS011;46106;51.468;5.814;2023-05-18T11:06:03;8.27;;;2.50;;
60243;SDS011;46106;51.468;5.814;2023-05-18T11:08:44;9.15;;;2.45;;
60243;SDS011;46106;51.468;5.814;2023-05-18T11:11:11;12.38;;;2.35;;
60243;SDS011;46106;51.468;5.814;2023-05-18T11:13:37;7.75;;;2.45;;
60243;SDS011;46106;51.468;5.814;2023-05-18T11:16:10;11.23;;;2.85;;
60243;SDS011;46106;51.468;5.814;2023-05-18T11:18:46;10.38;;;2.55;;
60243;SDS011;46106;51.468;5.814;2023-05-18T11:21:19;10.48;;;2.95;;
60243;SDS011;46106;51.468;5.814;2023-05-18T11:26:36;7.80;;;2.78;;
60243;SDS011;46106;51.468;5.814;2023-05-18T11:29:14;8.30;;;2.42;;
60243;SDS011;46106;51.468;5.814;2023-05-18T11:31:59;11.00;;;3.10;;
60243;SDS011;46106;51.468;5.814;2023-05-18T11:34:42;10.38;;;3.42;;
60243;SDS011;46106;51.468;5.814;2023-05-18T11:37:13;9.82;;;3.10;;
60243;SDS011;46106;51.468;5.814;2023-05-18T11:39:39;8.50;;;2.78;;
60243;SDS011;46106;51.468;5.814;2023-05-18T11:44:33;7.68;;;2.58;;
60243;SDS011;46106;51.468;5.814;2023-05-18T11:47:04;9.57;;;2.78;;
60243;SDS011;46106;51.468;5.814;2023-05-18T11:49:43;11.02;;;3.05;;
60243;SDS011;46106;51.468;5.814;2023-05-18T11:54:52;13.77;;;2.92;;
60243;SDS011;46106;51.468;5.814;2023-05-18T12:00:05;9.32;;;3.03;;
60243;SDS011;46106;51.468;5.814;2023-05-18T12:02:37;12.35;;;2.90;;
60243;SDS011;46106;51.468;5.814;2023-05-18T12:05:06;9.70;;;2.83;;
60243;SDS011;46106;51.468;5.814;2023-05-18T12:07:33;10.23;;;3.20;;
60243;SDS011;46106;51.468;5.814;2023-05-18T12:10:10;9.55;;;2.50;;
60243;SDS011;46106;51.468;5.814;2023-05-18T12:12:36;7.53;;;2.58;;
60243;SDS011;46106;51.468;5.814;2023-05-18T12:15:04;13.05;;;2.72;;
60243;SDS011;46106;51.468;5.814;2023-05-18T12:17:44;9.43;;;2.90;;
60243;SDS011;46106;51.468;5.814;2023-05-18T12:20:14;8.93;;;3.00;;
60243;SDS011;46106;51.468;5.814;2023-05-18T12:22:47;11.98;;;3.30;;
60243;SDS011;46106;51.468;5.814;2023-05-18T12:25:14;10.15;;;3.08;;
60243;SDS011;46106;51.468;5.814;2023-05-18T12:27:43;8.63;;;2.92;;
60243;SDS011;46106;51.468;5.814;2023-05-18T12:30:20;11.35;;;2.97;;
60243;SDS011;46106;51.468;5.814;2023-05-18T12:32:48;12.65;;;3.85;;
60243;SDS011;46106;51.468;5.814;2023-05-18T12:35:15;10.65;;;2.78;;
60243;SDS011;46106;51.468;5.814;2023-05-18T12:37:45;8.20;;;2.50;;
60243;SDS011;46106;51.468;5.814;2023-05-18T12:40:12;8.75;;;2.80;;
60243;SDS011;46106;51.468;5.814;2023-05-18T12:42:49;13.88;;;2.92;;
60243;SDS011;46106;51.468;5.814;2023-05-18T12:45:16;10.35;;;2.78;;
60243;SDS011;46106;51.468;5.814;2023-05-18T12:47:42;14.30;;;3.67;;
60243;SDS011;46106;51.468;5.814;2023-05-18T12:50:07;8.48;;;3.00;;
60243;SDS011;46106;51.468;5.814;2023-05-18T12:52:33;9.55;;;2.88;;
60243;SDS011;46106;51.468;5.814;2023-05-18T12:54:59;7.50;;;2.83;;
60243;SDS011;46106;51.468;5.814;2023-05-18T12:57:25;10.65;;;3.08;;
60243;SDS011;46106;51.468;5.814;2023-05-18T13:00:01;14.32;;;3.58;;
60243;SDS011;46106;51.468;5.814;2023-05-18T13:02:37;20.13;;;3.83;;
60243;SDS011;46106;51.468;5.814;2023-05-18T13:05:03;13.32;;;4.20;;
60243;SDS011;46106;51.468;5.814;2023-05-18T13:07:31;13.43;;;3.72;;
60243;SDS011;46106;51.468;5.814;2023-05-18T13:10:00;12.18;;;3.28;;
60243;SDS011;46106;51.468;5.814;2023-05-18T13:12:37;12.45;;;4.40;;
60243;SDS011;46106;51.468;5.814;2023-05-18T13:15:13;10.40;;;3.65;;
60243;SDS011;46106;51.468;5.814;2023-05-18T13:17:59;14.75;;;3.53;;
60243;SDS011;46106;51.468;5.814;2023-05-18T13:20:29;9.70;;;3.33;;
60243;SDS011;46106;51.468;5.814;2023-05-18T13:23:16;13.02;;;3.33;;
60243;SDS011;46106;51.468;5.814;2023-05-18T13:25:43;10.32;;;3.50;;
60243;SDS011;46106;51.468;5.814;2023-05-18T13:28:09;7.63;;;3.28;;
60243;SDS011;46106;51.468;5.814;2023-05-18T13:30:36;12.48;;;3.38;;
60243;SDS011;46106;51.468;5.814;2023-05-18T13:33:03;9.73;;;3.40;;
60243;SDS011;46106;51.468;5.814;2023-05-18T13:35:29;8.48;;;3.05;;
60243;SDS011;46106;51.468;5.814;2023-05-18T13:37:55;14.75;;;3.67;;
60243;SDS011;46106;51.468;5.814;2023-05-18T13:40:21;12.63;;;3.05;;
60243;SDS011;46106;51.468;5.814;2023-05-18T13:42:49;10.80;;;3.75;;
60243;SDS011;46106;51.468;5.814;2023-05-18T13:45:15;7.45;;;3.35;;
60243;SDS011;46106;51.468;5.814;2023-05-18T13:47:40;13.75;;;3.20;;
60243;SDS011;46106;51.468;5.814;2023-05-18T13:50:07;10.25;;;3.38;;
60243;SDS011;46106;51.468;5.814;2023-05-18T13:52:34;11.00;;;3.88;;
60243;SDS011;46106;51.468;5.814;2023-05-18T13:55:01;13.90;;;3.67;;
60243;SDS011;46106;51.468;5.814;2023-05-18T13:57:27;9.80;;;2.95;;
60243;SDS011;46106;51.468;5.814;2023-05-18T13:59:54;10.98;;;3.92;;
60243;SDS011;46106;51.468;5.814;2023-05-18T14:02:22;9.73;;;3.63;;
60243;SDS011;46106;51.468;5.814;2023-05-18T14:04:48;10.32;;;3.17;;
60243;SDS011;46106;51.468;5.814;2023-05-18T14:07:16;12.63;;;3.45;;
60243;SDS011;46106;51.468;5.814;2023-05-18T14:09:42;6.72;;;2.88;;
60243;SDS011;46106;51.468;5.814;2023-05-18T14:12:07;10.45;;;3.50;;
60243;SDS011;46106;51.468;5.814;2023-05-18T14:14:35;15.57;;;3.40;;
60243;SDS011;46106;51.468;5.814;2023-05-18T14:17:01;10.32;;;3.60;;
60243;SDS011;46106;51.468;5.814;2023-05-18T14:19:27;10.18;;;3.20;;
60243;SDS011;46106;51.468;5.814;2023-05-18T14:21:52;8.93;;;3.45;;
60243;SDS011;46106;51.468;5.814;2023-05-18T14:24:18;10.82;;;3.70;;
60243;SDS011;46106;51.468;5.814;2023-05-18T14:26:44;15.85;;;3.47;;
60243;SDS011;46106;51.468;5.814;2023-05-18T14:29:09;8.13;;;3.53;;
60243;SDS011;46106;51.468;5.814;2023-05-18T14:31:35;11.93;;;3.47;;
60243;SDS011;46106;51.468;5.814;2023-05-18T14:34:00;11.43;;;3.08;;
60243;SDS011;46106;51.468;5.814;2023-05-18T14:36:26;10.73;;;3.30;;
60243;SDS011;46106;51.468;5.814;2023-05-18T14:38:51;14.45;;;3.80;;
60243;SDS011;46106;51.468;5.814;2023-05-18T14:41:17;15.70;;;3.67;;
60243;SDS011;46106;51.468;5.814;2023-05-18T14:43:43;11.88;;;3.55;;
60243;SDS011;46106;51.468;5.814;2023-05-18T14:46:10;13.13;;;2.95;;
60243;SDS011;46106;51.468;5.814;2023-05-18T14:48:36;12.45;;;3.40;;
60243;SDS011;46106;51.468;5.814;2023-05-18T14:51:01;9.27;;;3.22;;
60243;SDS011;46106;51.468;5.814;2023-05-18T14:53:27;14.02;;;4.35;;
60243;SDS011;46106;51.468;5.814;2023-05-18T14:55:52;12.65;;;3.30;;
60243;SDS011;46106;51.468;5.814;2023-05-18T14:58:17;13.57;;;3.50;;
60243;SDS011;46106;51.468;5.814;2023-05-18T15:00:43;9.32;;;3.05;;